Time;durP1;ratioP1;P1;durP2;ratioP2;P2;SDS_P1;SDS_P2;PMS_P1;PMS_P2;Temp;Humidity;BMP_temperature;BMP_pressure;BME280_temperature;BME280_humidity;BME280_pressure;Samples;Min_cycle;Max_cycle;Signal;HPM_P1;HPM_P2
2023/08/19 02:02:12;;;;;;;17.27;14.40;;;;;;;;;;4440670;27;19956;-84
2023/08/19 02:04:39;;;;;;;15.63;14.00;;;;;;;;;;4325197;33;20080;-84
2023/08/19 02:07:04;;;;;;;21.48;15.00;;;;;;;;;;4326223;33;20111;-85
2023/08/19 02:09:31;;;;;;;17.90;14.75;;;;;;;;;;4325863;33;20049;-84
2023/08/19 02:11:57;;;;;;;20.67;15.38;;;;;;;;;;4325224;33;20086;-82
2023/08/19 02:14:23;;;;;;;20.17;15.35;;;;;;;;;;4325404;33;20060;-85
2023/08/19 02:16:49;;;;;;;15.88;13.73;;;;;;;;;;4325719;33;20103;-85
2023/08/19 02:19:16;;;;;;;16.48;14.25;;;;;;;;;;4324958;33;20079;-82
2023/08/19 02:21:42;;;;;;;21.58;14.85;;;;;;;;;;4326093;33;20387;-82
2023/08/19 02:24:08;;;;;;;15.77;14.07;;;;;;;;;;4327588;33;20075;-80
2023/08/19 02:26:34;;;;;;;15.27;13.32;;;;;;;;;;4327563;33;20070;-82
2023/08/19 02:29:00;;;;;;;16.40;13.77;;;;;;;;;;4325479;33;20052;-83
2023/08/19 02:31:26;;;;;;;14.75;13.20;;;;;;;;;;4326213;33;20080;-84
2023/08/19 02:33:53;;;;;;;21.20;13.27;;;;;;;;;;4325249;33;20060;-84
2023/08/19 02:36:19;;;;;;;16.73;13.38;;;;;;;;;;4325392;33;20452;-85
2023/08/19 02:38:45;;;;;;;15.05;12.88;;;;;;;;;;4324002;33;20062;-83
2023/08/19 02:41:11;;;;;;;13.95;12.18;;;;;;;;;;4325160;33;20211;-85
2023/08/19 02:43:37;;;;;;;17.48;11.65;;;;;;;;;;4310703;33;20220;-82
2023/08/19 02:46:04;;;;;;;13.45;11.90;;;;;;;;;;4266606;33;20065;-86
2023/08/19 02:48:31;;;;;;;17.12;11.82;;;;;;;;;;4267905;33;20059;-81
2023/08/19 02:50:57;;;;;;;11.93;10.75;;;;;;;;;;4266518;33;20372;-83
2023/08/19 02:53:23;;;;;;;17.87;12.48;;;;;;;;;;4267700;33;20220;-83
2023/08/19 02:55:52;;;;;;;12.25;10.15;;;;;;;;;;4239418;33;20072;-83
2023/08/19 02:58:18;;;;;;;13.05;11.05;;;;;;;;;;4239243;33;20058;-83
2023/08/19 03:00:47;;;;;;;14.43;10.90;;;;;;;;;;4238994;33;20064;-83
2023/08/19 03:03:14;;;;;;;12.32;11.18;;;;;;;;;;4238247;33;20062;-84
2023/08/19 03:05:40;;;;;;;13.43;12.02;;;;;;;;;;4240361;33;20072;-84
2023/08/19 03:08:07;;;;;;;21.08;11.80;;;;;;;;;;4218702;34;20437;-83
2023/08/19 03:10:34;;;;;;;13.13;11.77;;;;;;;;;;4224377;34;20449;-82
2023/08/19 03:13:00;;;;;;;17.75;12.77;;;;;;;;;;4224931;34;20482;-82
2023/08/19 03:15:26;;;;;;;12.57;11.02;;;;;;;;;;4233475;33;20057;-80
2023/08/19 03:17:54;;;;;;;13.43;11.18;;;;;;;;;;4239850;33;20053;-83
2023/08/19 03:20:19;;;;;;;17.50;10.70;;;;;;;;;;4238137;33;20111;-84
2023/08/19 03:22:46;;;;;;;13.02;11.30;;;;;;;;;;4238437;33;20081;-82
2023/08/19 03:25:12;;;;;;;14.75;12.48;;;;;;;;;;4224447;34;20043;-83
2023/08/19 03:27:38;;;;;;;42.03;12.10;;;;;;;;;;4222272;34;20042;-82
2023/08/19 03:30:05;;;;;;;12.77;11.25;;;;;;;;;;4224486;34;20572;-82
2023/08/19 03:32:31;;;;;;;15.45;11.77;;;;;;;;;;4232553;33;20072;-83
2023/08/19 03:34:57;;;;;;;13.50;12.02;;;;;;;;;;4266744;33;20022;-83
2023/08/19 03:37:24;;;;;;;17.55;12.60;;;;;;;;;;4264022;33;20049;-85
2023/08/19 03:39:50;;;;;;;17.20;10.95;;;;;;;;;;4276377;33;20440;-82
2023/08/19 03:42:17;;;;;;;12.90;11.60;;;;;;;;;;4278299;33;20071;-84
2023/08/19 03:44:43;;;;;;;15.48;11.63;;;;;;;;;;4267287;33;20391;-86
2023/08/19 03:47:10;;;;;;;14.55;11.93;;;;;;;;;;4266684;33;20097;-84
2023/08/19 03:49:36;;;;;;;12.95;11.43;;;;;;;;;;4288722;33;20045;-82
2023/08/19 03:52:05;;;;;;;14.15;10.70;;;;;;;;;;4293104;33;20067;-83
2023/08/19 03:54:31;;;;;;;15.05;12.25;;;;;;;;;;4296570;33;20052;-81
2023/08/19 03:56:57;;;;;;;12.63;11.30;;;;;;;;;;4319247;33;20056;-84
2023/08/19 03:59:30;;;;;;;16.95;11.60;;;;;;;;;;4310988;33;20080;-84
2023/08/19 04:01:57;;;;;;;12.57;11.35;;;;;;;;;;4308232;33;20067;-82
2023/08/19 04:04:23;;;;;;;14.80;12.30;;;;;;;;;;4309437;33;20052;-82
2023/08/19 04:06:50;;;;;;;15.57;12.02;;;;;;;;;;4310360;33;20044;-83
2023/08/19 04:09:16;;;;;;;14.63;11.05;;;;;;;;;;4310703;33;20087;-83
2023/08/19 04:11:42;;;;;;;13.05;11.73;;;;;;;;;;4308874;33;20410;-83
2023/08/19 04:14:08;;;;;;;13.85;12.45;;;;;;;;;;4308538;33;20040;-80
2023/08/19 04:16:36;;;;;;;17.17;11.60;;;;;;;;;;4306959;33;20048;-82
2023/08/19 04:19:02;;;;;;;18.20;11.02;;;;;;;;;;4308600;33;20083;-82
2023/08/19 04:21:29;;;;;;;18.35;13.48;;;;;;;;;;4308645;33;20080;-82
2023/08/19 04:23:56;;;;;;;15.68;12.98;;;;;;;;;;4309130;33;20058;-82
2023/08/19 04:26:22;;;;;;;17.77;12.60;;;;;;;;;;4307927;33;20066;-79
2023/08/19 04:28:49;;;;;;;14.38;12.10;;;;;;;;;;4310325;33;20045;-82
2023/08/19 04:31:15;;;;;;;15.98;11.52;;;;;;;;;;4291601;33;20357;-82
2023/08/19 04:33:42;;;;;;;16.80;13.27;;;;;;;;;;4294053;33;20395;-82
2023/08/19 04:36:08;;;;;;;17.80;12.95;;;;;;;;;;4294285;33;20040;-81
2023/08/19 04:38:34;;;;;;;19.87;12.02;;;;;;;;;;4290576;33;20401;-80
2023/08/19 04:41:02;;;;;;;17.77;12.37;;;;;;;;;;4292168;33;20045;-83
2023/08/19 04:43:29;;;;;;;18.42;11.55;;;;;;;;;;4293149;33;20061;-82
2023/08/19 04:45:56;;;;;;;21.17;12.35;;;;;;;;;;4291944;33;20436;-83
2023/08/19 04:48:23;;;;;;;14.13;11.30;;;;;;;;;;4292139;33;20055;-84
2023/08/19 04:50:49;;;;;;;16.55;11.20;;;;;;;;;;4291650;33;20053;-81
2023/08/19 04:53:15;;;;;;;16.52;10.85;;;;;;;;;;4291282;33;20112;-83
2023/08/19 04:55:42;;;;;;;22.08;12.52;;;;;;;;;;4294125;33;20091;-83
2023/08/19 04:58:08;;;;;;;11.95;10.75;;;;;;;;;;4294299;33;20029;-84
2023/08/19 05:00:35;;;;;;;18.80;10.93;;;;;;;;;;4293783;33;20203;-84
2023/08/19 05:03:03;;;;;;;14.10;11.82;;;;;;;;;;4314961;33;20078;-81
2023/08/19 05:05:29;;;;;;;21.33;12.10;;;;;;;;;;4325669;33;20083;-86
2023/08/19 05:07:55;;;;;;;12.95;11.55;;;;;;;;;;4326993;33;20066;-84
2023/08/19 05:10:22;;;;;;;12.02;10.77;;;;;;;;;;4327125;33;20074;-85
2023/08/19 05:12:48;;;;;;;19.90;11.27;;;;;;;;;;4325305;33;20040;-87
2023/08/19 05:15:14;;;;;;;14.68;11.63;;;;;;;;;;4319263;33;20486;-81
2023/08/19 05:17:41;;;;;;;12.25;10.55;;;;;;;;;;4316787;33;20427;-88
2023/08/19 05:20:07;;;;;;;13.95;10.57;;;;;;;;;;4326433;33;20052;-87
2023/08/19 05:22:33;;;;;;;15.25;11.27;;;;;;;;;;4325295;33;20169;-86
2023/08/19 05:25:00;;;;;;;15.07;12.95;;;;;;;;;;4326221;33;20519;-87
2023/08/19 05:27:26;;;;;;;12.20;11.07;;;;;;;;;;4320989;33;20048;-80
2023/08/19 05:29:52;;;;;;;19.30;13.23;;;;;;;;;;4311864;33;20078;-84
2023/08/19 05:32:18;;;;;;;17.17;13.75;;;;;;;;;;4312131;33;20049;-86
2023/08/19 05:34:44;;;;;;;21.65;12.88;;;;;;;;;;4311119;33;20063;-85
2023/08/19 05:37:10;;;;;;;18.15;14.40;;;;;;;;;;4325390;33;20437;-86
2023/08/19 05:39:36;;;;;;;18.67;14.55;;;;;;;;;;4322888;33;20053;-83
2023/08/19 05:42:02;;;;;;;16.60;13.70;;;;;;;;;;4326338;33;20130;-85
2023/08/19 05:47:01;;;;;;;20.52;15.07;;;;;;;;;;4326663;33;20040;-87
2023/08/19 05:49:27;;;;;;;18.80;14.10;;;;;;;;;;4326423;33;20435;-83
2023/08/19 05:51:53;;;;;;;17.02;14.80;;;;;;;;;;4324362;33;20381;-86
2023/08/19 05:54:19;;;;;;;21.58;17.80;;;;;;;;;;4326540;33;20074;-86
2023/08/19 05:56:45;;;;;;;26.95;18.33;;;;;;;;;;4327534;33;20040;-83
2023/08/19 05:59:12;;;;;;;20.62;16.62;;;;;;;;;;4327650;33;20127;-83
2023/08/19 06:01:38;;;;;;;23.12;16.67;;;;;;;;;;4326685;33;20146;-79
2023/08/19 06:04:04;;;;;;;25.30;16.48;;;;;;;;;;4326603;33;20052;-83
2023/08/19 06:06:30;;;;;;;19.98;16.00;;;;;;;;;;4329281;33;20078;-83
2023/08/19 06:08:56;;;;;;;18.58;15.70;;;;;;;;;;4329116;33;20066;-83
2023/08/19 06:11:23;;;;;;;15.90;13.55;;;;;;;;;;4312169;33;20074;-83
2023/08/19 06:13:50;;;;;;;21.37;13.18;;;;;;;;;;4312915;33;20036;-82
2023/08/19 06:16:16;;;;;;;14.30;11.70;;;;;;;;;;4310778;33;20044;-85
2023/08/19 06:18:42;;;;;;;15.75;12.20;;;;;;;;;;4311900;33;20049;-84
2023/08/19 06:21:08;;;;;;;15.13;12.35;;;;;;;;;;4311902;33;20037;-84
2023/08/19 06:23:34;;;;;;;24.50;11.95;;;;;;;;;;4310404;33;20062;-83
2023/08/19 06:26:01;;;;;;;14.68;13.07;;;;;;;;;;4293856;33;20074;-80
2023/08/19 06:28:27;;;;;;;12.52;10.95;;;;;;;;;;4285337;33;20053;-81
2023/08/19 06:30:53;;;;;;;15.98;11.25;;;;;;;;;;4282621;33;20443;-80
2023/08/19 06:33:20;;;;;;;16.90;11.45;;;;;;;;;;4284726;33;20146;-80
2023/08/19 06:35:49;;;;;;;18.85;12.68;;;;;;;;;;4287515;33;20034;-84
2023/08/19 06:38:20;;;;;;;11.82;10.63;;;;;;;;;;4288344;33;20063;-85
2023/08/19 06:40:56;;;;;;;11.43;10.02;;;;;;;;;;4272387;33;20074;-81
2023/08/19 06:43:24;;;;;;;12.90;10.80;;;;;;;;;;4274175;33;20038;-91
2023/08/19 06:45:51;;;;;;;25.40;12.45;;;;;;;;;;4273496;33;20057;-85
2023/08/19 06:48:18;;;;;;;18.05;12.90;;;;;;;;;;4276943;33;20927;-87
2023/08/19 06:53:18;;;;;;;15.60;11.60;;;;;;;;;;4268696;33;20033;-92
2023/08/19 06:55:48;;;;;;;16.95;12.35;;;;;;;;;;4270893;33;20075;-91
2023/08/19 06:58:18;;;;;;;16.17;11.50;;;;;;;;;;4297156;33;20082;-92
2023/08/19 07:00:47;;;;;;;14.68;11.23;;;;;;;;;;4302857;33;20078;-92
2023/08/19 07:03:13;;;;;;;17.37;11.45;;;;;;;;;;4298818;33;20063;-91
2023/08/19 07:05:40;;;;;;;14.55;10.48;;;;;;;;;;4297268;33;20104;-91
2023/08/19 07:08:10;;;;;;;13.52;10.55;;;;;;;;;;4296972;33;20124;-89
2023/08/19 07:10:36;;;;;;;14.93;10.90;;;;;;;;;;4296124;33;20052;-84
2023/08/19 07:13:03;;;;;;;13.25;9.88;;;;;;;;;;4332594;33;20403;-85
2023/08/19 07:15:29;;;;;;;11.55;9.85;;;;;;;;;;4333704;33;20088;-93
2023/08/19 07:17:58;;;;;;;10.85;9.75;;;;;;;;;;4337823;33;20096;-90
2023/08/19 07:20:24;;;;;;;14.82;9.52;;;;;;;;;;4280779;33;20145;-88
2023/08/19 07:22:51;;;;;;;13.15;9.70;;;;;;;;;;4284948;33;20086;-90
2023/08/19 07:25:17;;;;;;;17.40;9.52;;;;;;;;;;4288962;33;20081;-88
2023/08/19 07:27:44;;;;;;;12.68;9.70;;;;;;;;;;4282673;33;20236;-88
2023/08/19 07:30:11;;;;;;;10.75;9.75;;;;;;;;;;4280658;33;20136;-89
2023/08/19 07:32:38;;;;;;;15.60;10.50;;;;;;;;;;4286059;33;20101;-89
2023/08/19 07:35:05;;;;;;;15.68;10.70;;;;;;;;;;4284623;33;20109;-88
2023/08/19 07:37:32;;;;;;;11.23;9.43;;;;;;;;;;4244579;33;20084;-87
2023/08/19 07:39:58;;;;;;;11.15;10.02;;;;;;;;;;4255239;33;20046;-90
2023/08/19 07:42:27;;;;;;;16.55;9.70;;;;;;;;;;4260842;33;20045;-88
2023/08/19 07:44:53;;;;;;;17.80;10.82;;;;;;;;;;4279485;33;20033;-86
2023/08/19 07:47:19;;;;;;;14.18;11.77;;;;;;;;;;4271156;33;20134;-85
2023/08/19 07:49:45;;;;;;;15.90;12.23;;;;;;;;;;4254506;33;20131;-88
2023/08/19 07:52:12;;;;;;;18.00;11.95;;;;;;;;;;4223638;34;20058;-85
2023/08/19 07:54:38;;;;;;;13.82;11.07;;;;;;;;;;4226516;33;20218;-87
2023/08/19 07:57:04;;;;;;;15.43;12.75;;;;;;;;;;4261152;33;20042;-86
2023/08/19 07:59:30;;;;;;;17.08;11.65;;;;;;;;;;4268414;33;20054;-86
2023/08/19 08:01:56;;;;;;;21.87;12.80;;;;;;;;;;4277766;33;20041;-85
2023/08/19 08:04:23;;;;;;;15.40;12.27;;;;;;;;;;4281355;33;20033;-86
2023/08/19 08:06:51;;;;;;;15.77;13.62;;;;;;;;;;4274295;33;20510;-86
2023/08/19 08:09:17;;;;;;;17.23;12.80;;;;;;;;;;4282393;33;20051;-86
2023/08/19 08:11:45;;;;;;;16.50;13.07;;;;;;;;;;4282031;33;20063;-86
2023/08/19 08:14:11;;;;;;;21.12;11.52;;;;;;;;;;4281422;33;20392;-86
2023/08/19 08:16:37;;;;;;;18.20;11.90;;;;;;;;;;4265551;33;20042;-85
2023/08/19 08:19:03;;;;;;;19.40;12.68;;;;;;;;;;4264589;33;20083;-85
2023/08/19 08:21:31;;;;;;;18.50;11.77;;;;;;;;;;4277985;33;20104;-85
2023/08/19 08:23:57;;;;;;;18.62;13.93;;;;;;;;;;4250866;33;20029;-84
2023/08/19 08:26:30;;;;;;;15.25;10.30;;;;;;;;;;4251327;33;20125;-87
2023/08/19 08:28:56;;;;;;;13.65;12.15;;;;;;;;;;4224119;33;20066;-85
2023/08/19 08:31:23;;;;;;;16.12;11.40;;;;;;;;;;4210971;34;20384;-85
2023/08/19 08:33:49;;;;;;;16.25;10.35;;;;;;;;;;4219851;33;20093;-85
2023/08/19 08:36:16;;;;;;;12.70;10.13;;;;;;;;;;4221432;34;20499;-88
2023/08/19 08:38:48;;;;;;;15.77;10.90;;;;;;;;;;4198710;34;20591;-84
2023/08/19 08:41:14;;;;;;;19.65;11.90;;;;;;;;;;4202136;34;20047;-84
2023/08/19 08:43:41;;;;;;;12.32;9.80;;;;;;;;;;4188242;34;20069;-83
2023/08/19 08:46:08;;;;;;;10.10;8.57;;;;;;;;;;4187909;34;20063;-82
2023/08/19 08:48:35;;;;;;;13.57;8.57;;;;;;;;;;4173964;34;20041;-84
2023/08/19 08:51:02;;;;;;;15.63;9.80;;;;;;;;;;4167819;34;20175;-83
2023/08/19 08:53:29;;;;;;;9.95;8.07;;;;;;;;;;4159081;34;20439;-83
2023/08/19 08:55:56;;;;;;;13.73;9.88;;;;;;;;;;4182483;34;20836;-82
2023/08/19 08:58:22;;;;;;;16.17;10.25;;;;;;;;;;4182499;34;20059;-83
2023/08/19 09:00:49;;;;;;;10.68;8.93;;;;;;;;;;4192398;34;20080;-81
2023/08/19 09:03:17;;;;;;;16.42;10.93;;;;;;;;;;4200752;34;20035;-82
2023/08/19 09:05:44;;;;;;;10.23;8.23;;;;;;;;;;4227068;33;20043;-82
2023/08/19 09:08:13;;;;;;;12.10;8.15;;;;;;;;;;4224702;34;20531;-82
2023/08/19 09:10:40;;;;;;;9.07;8.15;;;;;;;;;;4236785;33;20091;-84
2023/08/19 09:13:09;;;;;;;10.88;7.87;;;;;;;;;;4251360;33;20050;-82
2023/08/19 09:15:35;;;;;;;8.63;7.50;;;;;;;;;;4251767;33;20424;-82
2023/08/19 09:18:01;;;;;;;10.60;8.00;;;;;;;;;;4252109;33;20042;-83
2023/08/19 09:20:28;;;;;;;10.50;8.00;;;;;;;;;;4273713;33;20044;-84
2023/08/19 09:23:03;;;;;;;13.85;8.63;;;;;;;;;;4315724;33;20063;-88
2023/08/19 09:25:30;;;;;;;9.13;8.07;;;;;;;;;;4308727;33;20045;-83
2023/08/19 09:28:02;;;;;;;9.85;7.95;;;;;;;;;;4309894;33;20117;-84
2023/08/19 09:30:32;;;;;;;9.40;8.40;;;;;;;;;;4306429;33;20048;-82
2023/08/19 09:32:59;;;;;;;11.70;8.18;;;;;;;;;;4286578;33;20049;-82
2023/08/19 09:35:34;;;;;;;10.18;8.30;;;;;;;;;;4295928;33;20078;-82
2023/08/19 09:38:02;;;;;;;10.02;8.80;;;;;;;;;;4280056;33;20049;-82
2023/08/19 09:40:28;;;;;;;13.07;8.60;;;;;;;;;;4289234;33;20063;-82
2023/08/19 09:42:55;;;;;;;17.27;9.35;;;;;;;;;;4281677;33;20449;-85
2023/08/19 09:45:25;;;;;;;16.85;9.07;;;;;;;;;;4293494;33;20053;-82
2023/08/19 09:47:52;;;;;;;9.93;8.82;;;;;;;;;;4294471;33;20071;-82
2023/08/19 09:50:19;;;;;;;10.00;8.98;;;;;;;;;;4294447;33;20041;-82
2023/08/19 09:52:52;;;;;;;11.70;9.02;;;;;;;;;;4293588;33;20134;-83
2023/08/19 09:55:21;;;;;;;11.70;9.65;;;;;;;;;;4256397;33;20496;-83
2023/08/19 09:57:47;;;;;;;17.77;12.27;;;;;;;;;;4258317;33;20103;-84
2023/08/19 10:00:13;;;;;;;16.27;10.50;;;;;;;;;;4263229;33;20049;-82
2023/08/19 10:02:39;;;;;;;9.02;7.85;;;;;;;;;;4277650;33;20123;-83
2023/08/19 10:05:06;;;;;;;11.88;8.25;;;;;;;;;;4280697;33;20782;-83
2023/08/19 10:07:32;;;;;;;16.02;7.62;;;;;;;;;;4288553;33;20455;-80
2023/08/19 10:10:01;;;;;;;9.20;7.82;;;;;;;;;;4286720;33;20070;-81
2023/08/19 10:12:29;;;;;;;14.63;9.50;;;;;;;;;;4284241;33;20067;-82
2023/08/19 10:14:57;;;;;;;12.70;7.37;;;;;;;;;;4284500;33;20029;-82
2023/08/19 10:17:27;;;;;;;8.52;7.62;;;;;;;;;;4283678;33;20444;-83
2023/08/19 10:19:59;;;;;;;10.43;6.50;;;;;;;;;;4292549;33;20059;-81
2023/08/19 10:22:27;;;;;;;7.78;7.07;;;;;;;;;;4283106;33;20419;-83
2023/08/19 10:24:54;;;;;;;7.75;6.97;;;;;;;;;;4279228;33;20063;-84
2023/08/19 10:27:20;;;;;;;9.05;6.57;;;;;;;;;;4265315;33;20046;-82
2023/08/19 10:29:55;;;;;;;12.20;6.97;;;;;;;;;;4281941;33;20052;-81
2023/08/19 10:32:25;;;;;;;10.13;7.12;;;;;;;;;;4295604;33;20507;-85
2023/08/19 10:34:51;;;;;;;18.00;9.23;;;;;;;;;;4319531;33;20061;-87
2023/08/19 10:37:28;;;;;;;7.68;6.30;;;;;;;;;;4319677;33;20056;-83
2023/08/19 10:40:05;;;;;;;19.20;6.80;;;;;;;;;;4321125;33;20066;-85
2023/08/19 10:42:31;;;;;;;8.43;6.87;;;;;;;;;;4317737;33;20048;-83
2023/08/19 10:44:57;;;;;;;11.75;7.15;;;;;;;;;;4322117;33;20078;-84
2023/08/19 10:47:23;;;;;;;8.23;7.43;;;;;;;;;;4312238;33;20045;-84
2023/08/19 10:49:49;;;;;;;8.73;5.87;;;;;;;;;;4309231;33;20068;-85
2023/08/19 10:52:20;;;;;;;9.77;6.35;;;;;;;;;;4308762;33;20058;-83
2023/08/19 10:54:46;;;;;;;11.27;6.50;;;;;;;;;;4302780;33;20033;-83
2023/08/19 10:57:23;;;;;;;7.82;7.07;;;;;;;;;;4304690;33;21182;-82
2023/08/19 11:00:01;;;;;;;7.78;6.75;;;;;;;;;;4303096;33;20083;-83
2023/08/19 11:02:29;;;;;;;9.02;7.15;;;;;;;;;;4450982;27;20473;-83
2023/08/19 11:04:57;;;;;;;7.95;7.15;;;;;;;;;;4264302;33;20418;-84
2023/08/19 11:07:24;;;;;;;8.55;6.62;;;;;;;;;;4267246;33;20041;-83
2023/08/19 11:09:50;;;;;;;9.30;6.68;;;;;;;;;;4266153;33;20058;-85
2023/08/19 11:12:20;;;;;;;7.93;6.43;;;;;;;;;;4266506;33;20033;-83
2023/08/19 11:14:55;;;;;;;10.60;6.47;;;;;;;;;;4268114;33;20105;-83
2023/08/19 11:17:28;;;;;;;6.82;4.85;;;;;;;;;;4263741;33;20069;-83
2023/08/19 11:19:55;;;;;;;6.25;5.75;;;;;;;;;;4265548;33;20056;-88
2023/08/19 11:22:23;;;;;;;8.25;6.35;;;;;;;;;;4281226;33;20092;-83
2023/08/19 11:24:51;;;;;;;6.45;5.87;;;;;;;;;;4278460;33;20505;-81
2023/08/19 11:27:17;;;;;;;8.52;6.30;;;;;;;;;;4277818;33;20056;-82
2023/08/19 11:29:47;;;;;;;6.60;6.05;;;;;;;;;;4279114;33;20071;-84
2023/08/19 11:32:19;;;;;;;10.68;6.20;;;;;;;;;;4283910;33;20036;-83
2023/08/19 11:34:46;;;;;;;8.40;6.62;;;;;;;;;;4283140;33;20127;-82
2023/08/19 11:37:12;;;;;;;7.32;5.60;;;;;;;;;;4285583;33;20451;-82
2023/08/19 11:39:39;;;;;;;16.05;5.87;;;;;;;;;;4281995;33;20382;-81
2023/08/19 11:42:06;;;;;;;6.55;5.65;;;;;;;;;;4279042;33;20119;-83
2023/08/19 11:44:32;;;;;;;9.55;5.95;;;;;;;;;;4294007;33;20075;-81
2023/08/19 11:46:58;;;;;;;14.25;6.07;;;;;;;;;;4282836;33;20041;-79
2023/08/19 11:49:29;;;;;;;10.75;6.10;;;;;;;;;;4301745;33;20044;-81
2023/08/19 11:51:55;;;;;;;5.93;5.43;;;;;;;;;;4294558;33;20033;-86
2023/08/19 11:54:28;;;;;;;7.15;6.25;;;;;;;;;;4295730;33;21040;-80
2023/08/19 11:56:55;;;;;;;7.60;5.78;;;;;;;;;;4297629;33;20033;-79
2023/08/19 11:59:27;;;;;;;6.10;5.53;;;;;;;;;;4305971;33;20465;-79
2023/08/19 12:01:53;;;;;;;6.82;6.12;;;;;;;;;;4290213;33;20053;-82
2023/08/19 12:04:21;;;;;;;8.55;6.05;;;;;;;;;;4279969;33;20061;-79
2023/08/19 12:06:47;;;;;;;7.15;6.12;;;;;;;;;;4280655;33;20059;-81
2023/08/19 12:09:17;;;;;;;6.32;5.72;;;;;;;;;;4280905;33;20087;-80
2023/08/19 12:11:46;;;;;;;10.83;6.23;;;;;;;;;;4281081;33;20085;-83
2023/08/19 12:14:12;;;;;;;6.45;5.72;;;;;;;;;;4272181;33;20217;-79
2023/08/19 12:16:38;;;;;;;6.47;5.78;;;;;;;;;;4275031;33;20439;-79
2023/08/19 12:19:05;;;;;;;6.55;5.97;;;;;;;;;;4254048;33;20058;-82
2023/08/19 12:21:31;;;;;;;16.55;6.20;;;;;;;;;;4256433;33;20068;-80
2023/08/19 12:23:57;;;;;;;6.60;6.07;;;;;;;;;;4254829;33;20073;-83
2023/08/19 12:26:23;;;;;;;8.85;5.55;;;;;;;;;;4253074;33;20062;-79
2023/08/19 12:28:49;;;;;;;9.00;6.45;;;;;;;;;;4251955;33;20171;-80
2023/08/19 12:31:15;;;;;;;9.20;6.25;;;;;;;;;;4254003;33;20057;-83
2023/08/19 12:33:43;;;;;;;9.52;5.75;;;;;;;;;;4244961;33;20893;-78
2023/08/19 12:36:11;;;;;;;6.70;6.00;;;;;;;;;;4241142;33;20109;-82
2023/08/19 12:38:37;;;;;;;10.05;7.12;;;;;;;;;;4275334;33;20965;-81
2023/08/19 12:41:05;;;;;;;14.60;6.22;;;;;;;;;;4246787;33;20193;-78
2023/08/19 12:43:31;;;;;;;9.27;6.50;;;;;;;;;;4233959;33;20081;-78
2023/08/19 12:45:57;;;;;;;6.35;5.75;;;;;;;;;;4232284;33;20517;-78
2023/08/19 12:48:25;;;;;;;8.05;5.93;;;;;;;;;;4231370;33;20106;-79
2023/08/19 12:50:50;;;;;;;7.18;6.10;;;;;;;;;;4247045;33;20049;-79
2023/08/19 12:53:17;;;;;;;6.43;5.82;;;;;;;;;;4255907;33;20087;-80
2023/08/19 12:55:43;;;;;;;6.65;5.85;;;;;;;;;;4255391;33;20099;-80
2023/08/19 12:58:16;;;;;;;9.48;6.32;;;;;;;;;;4250116;33;20444;-80
2023/08/19 13:00:42;;;;;;;7.03;6.30;;;;;;;;;;4252176;33;20346;-79
2023/08/19 13:03:09;;;;;;;8.32;6.10;;;;;;;;;;4253640;33;20076;-79
2023/08/19 13:05:35;;;;;;;7.20;6.50;;;;;;;;;;4250466;33;20492;-78
2023/08/19 13:08:01;;;;;;;12.10;7.57;;;;;;;;;;4250344;33;20708;-82
2023/08/19 13:10:28;;;;;;;7.97;7.07;;;;;;;;;;4251397;33;20056;-79
2023/08/19 13:12:54;;;;;;;9.15;6.53;;;;;;;;;;4268064;33;20049;-79
2023/08/19 13:15:20;;;;;;;8.38;6.72;;;;;;;;;;4266943;33;20037;-79
2023/08/19 13:17:47;;;;;;;7.03;6.37;;;;;;;;;;4266498;33;20057;-80
2023/08/19 13:20:15;;;;;;;11.18;8.82;;;;;;;;;;4263584;33;20099;-79
2023/08/19 13:22:41;;;;;;;7.30;6.60;;;;;;;;;;4285697;33;20100;-79
2023/08/19 13:25:08;;;;;;;10.57;7.37;;;;;;;;;;4289983;33;20074;-78
2023/08/19 13:27:34;;;;;;;12.50;7.20;;;;;;;;;;4278251;33;20430;-77
2023/08/19 13:30:00;;;;;;;9.60;6.50;;;;;;;;;;4278824;33;20041;-78
2023/08/19 13:32:27;;;;;;;8.07;7.20;;;;;;;;;;4276774;33;20383;-77
2023/08/19 13:34:54;;;;;;;6.40;5.82;;;;;;;;;;4278089;33;20134;-80
2023/08/19 13:37:20;;;;;;;7.12;6.32;;;;;;;;;;4271806;33;20104;-79
2023/08/19 13:39:46;;;;;;;7.28;6.35;;;;;;;;;;4274505;33;20034;-77
2023/08/19 13:42:13;;;;;;;6.50;6.00;;;;;;;;;;4273350;33;20045;-81
2023/08/19 13:44:39;;;;;;;6.95;5.47;;;;;;;;;;4276189;33;20076;-79
2023/08/19 13:47:06;;;;;;;8.18;5.80;;;;;;;;;;4251148;33;20070;-78
2023/08/19 13:49:32;;;;;;;8.32;5.12;;;;;;;;;;4249604;33;20077;-78
2023/08/19 13:51:58;;;;;;;8.55;5.95;;;;;;;;;;4249592;33;20078;-79
2023/08/19 13:54:24;;;;;;;6.60;5.55;;;;;;;;;;4248702;33;20067;-79
2023/08/19 13:56:51;;;;;;;6.00;5.37;;;;;;;;;;4249803;33;20046;-77
2023/08/19 13:59:17;;;;;;;6.05;5.45;;;;;;;;;;4251153;33;20828;-77
2023/08/19 14:01:44;;;;;;;6.35;5.12;;;;;;;;;;4253286;33;20080;-78
2023/08/19 14:04:10;;;;;;;5.65;5.25;;;;;;;;;;4265088;33;20075;-76
2023/08/19 14:06:36;;;;;;;6.87;6.10;;;;;;;;;;4263096;33;20063;-81
2023/08/19 14:09:03;;;;;;;8.73;5.95;;;;;;;;;;4249687;33;20064;-77
2023/08/19 14:11:30;;;;;;;6.25;5.78;;;;;;;;;;4249429;33;20054;-76
2023/08/19 14:13:56;;;;;;;6.80;6.10;;;;;;;;;;4250729;33;20055;-77
2023/08/19 14:16:22;;;;;;;7.57;6.90;;;;;;;;;;4250567;33;20085;-76
2023/08/19 14:18:48;;;;;;;6.95;5.93;;;;;;;;;;4261671;33;20030;-77
2023/08/19 14:21:14;;;;;;;6.60;5.72;;;;;;;;;;4265628;33;20221;-77
2023/08/19 14:23:42;;;;;;;11.02;6.72;;;;;;;;;;4267431;33;20081;-78
2023/08/19 14:26:09;;;;;;;8.82;6.25;;;;;;;;;;4266888;33;20059;-77
2023/08/19 14:28:35;;;;;;;7.03;5.37;;;;;;;;;;4265351;33;20081;-82
2023/08/19 14:31:01;;;;;;;9.98;6.00;;;;;;;;;;4266286;33;20062;-78
2023/08/19 14:33:27;;;;;;;8.82;5.90;;;;;;;;;;4267452;33;20561;-79
2023/08/19 14:35:54;;;;;;;6.30;5.68;;;;;;;;;;4266612;33;20075;-77
2023/08/19 14:38:19;;;;;;;6.75;5.72;;;;;;;;;;4266589;33;20050;-77
2023/08/19 14:40:46;;;;;;;9.75;5.68;;;;;;;;;;4276630;33;20030;-81
2023/08/19 14:43:12;;;;;;;9.23;5.97;;;;;;;;;;4294266;33;20323;-79
2023/08/19 14:45:38;;;;;;;6.60;5.47;;;;;;;;;;4298587;33;20045;-77
2023/08/19 14:48:05;;;;;;;11.25;6.30;;;;;;;;;;4296745;33;20071;-78
2023/08/19 14:50:31;;;;;;;8.15;5.80;;;;;;;;;;4292117;33;20103;-78
2023/08/19 14:52:57;;;;;;;10.38;5.30;;;;;;;;;;4296483;33;20088;-82
2023/08/19 14:55:24;;;;;;;8.15;5.80;;;;;;;;;;4296332;33;20750;-78
2023/08/19 14:57:50;;;;;;;6.68;5.68;;;;;;;;;;4297947;33;20049;-78
2023/08/19 15:00:17;;;;;;;7.97;5.57;;;;;;;;;;4297080;33;20083;-78
2023/08/19 15:02:44;;;;;;;5.90;5.30;;;;;;;;;;4291433;33;20045;-78
2023/08/19 15:05:11;;;;;;;8.85;4.97;;;;;;;;;;4297891;33;20074;-83
2023/08/19 15:07:36;;;;;;;6.55;5.95;;;;;;;;;;4307039;33;20045;-82
2023/08/19 15:10:03;;;;;;;9.40;5.57;;;;;;;;;;4308381;33;20208;-80
2023/08/19 15:12:29;;;;;;;6.97;6.05;;;;;;;;;;4309425;33;20025;-79
2023/08/19 15:14:55;;;;;;;6.53;5.57;;;;;;;;;;4294619;33;20441;-77
2023/08/19 15:17:22;;;;;;;5.62;5.12;;;;;;;;;;4295136;33;20073;-82
2023/08/19 15:19:48;;;;;;;6.37;4.85;;;;;;;;;;4292032;33;20139;-78
2023/08/19 15:22:15;;;;;;;6.37;5.55;;;;;;;;;;4294892;33;20052;-80
2023/08/19 15:24:41;;;;;;;5.85;5.35;;;;;;;;;;4293996;33;20458;-81
2023/08/19 15:27:08;;;;;;;6.30;5.47;;;;;;;;;;4292754;33;20076;-78
2023/08/19 15:29:34;;;;;;;10.55;5.22;;;;;;;;;;4292621;33;20057;-82
2023/08/19 15:32:00;;;;;;;8.20;6.03;;;;;;;;;;4294419;33;20058;-79
2023/08/19 15:34:27;;;;;;;10.02;6.43;;;;;;;;;;4294458;33;20437;-79
2023/08/19 15:36:54;;;;;;;7.72;7.07;;;;;;;;;;4293252;33;20041;-79
2023/08/19 15:39:20;;;;;;;6.62;6.07;;;;;;;;;;4293264;33;20059;-79
2023/08/19 15:41:46;;;;;;;8.60;6.68;;;;;;;;;;4294085;33;20093;-81
2023/08/19 15:44:12;;;;;;;8.50;6.62;;;;;;;;;;4289936;33;20110;-79
2023/08/19 15:46:39;;;;;;;10.82;7.07;;;;;;;;;;4276125;33;20876;-79
2023/08/19 15:49:05;;;;;;;8.52;7.22;;;;;;;;;;4294702;33;20078;-80
2023/08/19 15:51:31;;;;;;;12.25;6.72;;;;;;;;;;4292422;33;20522;-78
2023/08/19 15:53:58;;;;;;;9.90;8.00;;;;;;;;;;4293171;33;20062;-77
2023/08/19 15:56:24;;;;;;;10.80;7.25;;;;;;;;;;4293437;33;20128;-79
2023/08/19 15:58:51;;;;;;;6.70;6.10;;;;;;;;;;4294775;33;20053;-79
2023/08/19 16:01:17;;;;;;;13.02;6.65;;;;;;;;;;4294651;33;20025;-78
2023/08/19 16:03:44;;;;;;;7.80;7.03;;;;;;;;;;4294440;33;20058;-78
2023/08/19 16:06:09;;;;;;;9.70;6.90;;;;;;;;;;4294451;33;20444;-78
2023/08/19 16:08:36;;;;;;;9.48;7.05;;;;;;;;;;4291435;33;20075;-79
2023/08/19 16:11:05;;;;;;;10.20;6.32;;;;;;;;;;4295282;33;20122;-79
2023/08/19 16:13:32;;;;;;;11.43;7.10;;;;;;;;;;4294027;33;20527;-79
2023/08/19 16:15:59;;;;;;;7.82;7.03;;;;;;;;;;4295162;33;20438;-79
2023/08/19 16:18:26;;;;;;;7.60;6.85;;;;;;;;;;4290597;33;20061;-83
2023/08/19 16:20:52;;;;;;;7.47;6.87;;;;;;;;;;4297651;33;20100;-77
2023/08/19 16:23:18;;;;;;;9.02;6.57;;;;;;;;;;4296631;33;20467;-80
2023/08/19 16:25:44;;;;;;;6.75;6.05;;;;;;;;;;4296672;33;20049;-78
2023/08/19 16:28:10;;;;;;;8.27;6.20;;;;;;;;;;4293999;33;20471;-79
2023/08/19 16:30:37;;;;;;;17.70;6.87;;;;;;;;;;4293986;33;20104;-80
2023/08/19 16:33:03;;;;;;;10.80;6.82;;;;;;;;;;4291817;33;20074;-78